LPPS/PXO METAR and TAF weather

Enter ICAO airport designator
Station Type Date Time Source
LPPS METAR 2020/07/04 01:00 UTC NOAA

LPPS 040100Z 04013KT 010V090 9999 FEW015 SCT030 20/13 Q1025


Station Type Date Time Source
LPPS Decoded METAR 2020/07/04 01:00 UTC NOAA

Porto Santo, Portugal (LPPS) 33-04N 016-21W 82M
Jul 03, 2020 - 09:00 PM EDT / 2020.07.04 0100 UTC
Wind: from the NE (040 degrees) at 15 MPH (13 KT) (direction variable):0
Visibility: greater than 7 mile(s):0
Sky conditions: partly cloudy
Temperature: 68 F (20 C)
Dew Point: 55 F (13 C)
Relative Humidity: 64%
Pressure (altimeter): 30.27 in. Hg (1025 hPa)
ob: LPPS 040100Z 04013KT 010V090 9999 FEW015 SCT030 20/13 Q1025
cycle: 1

Station Type Date Time Source
LPPS TAF 2020/07/03 18:18 UTC NOAA

TAF LPPS 031700Z 0318/0424 01013KT 9999 SCT015
TEMPO 0318/0424 SCT015 BKN030

Example: see airport list